Time;durP1;ratioP1;P1;durP2;ratioP2;P2;SDS_P1;SDS_P2;PMS_P1;PMS_P2;Temp;Humidity;BMP_temperature;BMP_pressure;BME280_temperature;BME280_humidity;BME280_pressure;Samples;Min_cycle;Max_cycle;Signal;HPM_P1;HPM_P2
2022/03/06 00:01:42;;;;;;;12.18;2.83;;;1.90;99.90;;;;;;5056803;28;20049;-62
2022/03/06 00:04:12;;;;;;;14.57;2.58;;;1.90;99.90;;;;;;5025431;28;20500;-62
2022/03/06 00:06:44;;;;;;;11.25;2.42;;;2.00;99.90;;;;;;5026208;28;20057;-65
2022/03/06 00:09:16;;;;;;;10.52;1.75;;;2.00;99.90;;;;;;5009197;28;20044;-62
2022/03/06 00:11:50;;;;;;;8.88;1.70;;;2.10;99.90;;;;;;5044065;28;20044;-62
2022/03/06 00:14:18;;;;;;;9.32;1.98;;;2.20;99.90;;;;;;5064616;28;20052;-63
2022/03/06 00:16:46;;;;;;;12.35;2.33;;;2.30;99.90;;;;;;5070432;28;20052;-62
2022/03/06 00:19:15;;;;;;;17.30;2.33;;;2.40;99.90;;;;;;5054809;28;20373;-63
2022/03/06 00:21:46;;;;;;;16.13;2.22;;;2.50;99.90;;;;;;5060387;28;20068;-62
2022/03/06 00:24:14;;;;;;;9.27;2.15;;;2.60;99.90;;;;;;5051829;28;20043;-62
2022/03/06 00:26:42;;;;;;;15.45;2.25;;;2.70;99.90;;;;;;5053441;28;20403;-63
2022/03/06 00:29:10;;;;;;;20.45;2.22;;;2.80;99.90;;;;;;5045682;28;20049;-63
2022/03/06 00:31:41;;;;;;;8.80;1.30;;;2.90;99.90;;;;;;5020911;28;20053;-62
2022/03/06 00:34:11;;;;;;;12.98;2.30;;;2.90;99.90;;;;;;5043941;28;20049;-62
2022/03/06 00:36:43;;;;;;;8.63;1.80;;;3.00;99.90;;;;;;5038639;28;20033;-63
2022/03/06 00:39:15;;;;;;;7.30;2.20;;;3.10;99.90;;;;;;5044609;28;20348;-62
2022/03/06 00:41:45;;;;;;;9.85;2.13;;;3.10;99.90;;;;;;5051148;28;20045;-63
2022/03/06 00:44:16;;;;;;;9.30;1.85;;;3.20;99.90;;;;;;5051842;28;20045;-63
2022/03/06 00:46:47;;;;;;;6.82;1.70;;;3.20;99.90;;;;;;5050260;28;20048;-63
2022/03/06 00:49:16;;;;;;;13.43;2.63;;;3.30;99.90;;;;;;5032964;28;20048;-62
2022/03/06 00:51:45;;;;;;;11.75;2.13;;;3.30;99.90;;;;;;5041146;28;20049;-62
2022/03/06 00:54:13;;;;;;;9.73;2.03;;;3.30;99.90;;;;;;5034692;28;20053;-63
2022/03/06 00:56:41;;;;;;;12.55;2.22;;;3.30;99.90;;;;;;5047245;28;20056;-62
2022/03/06 00:59:09;;;;;;;7.28;2.13;;;3.30;99.90;;;;;;5050484;28;20049;-62
2022/03/06 01:01:37;;;;;;;11.90;2.17;;;3.30;99.90;;;;;;5030615;28;20049;-64
2022/03/06 01:04:11;;;;;;;11.05;2.33;;;3.30;99.90;;;;;;5039657;28;20056;-62
2022/03/06 01:06:39;;;;;;;11.88;2.22;;;3.30;99.90;;;;;;5043414;28;20063;-62
2022/03/06 01:09:07;;;;;;;8.32;2.90;;;3.20;99.90;;;;;;5059120;28;20055;-62
2022/03/06 01:11:35;;;;;;;8.60;2.35;;;3.20;99.90;;;;;;5038109;28;20042;-63
2022/03/06 01:14:05;;;;;;;11.82;2.45;;;3.10;99.90;;;;;;5056572;28;20052;-64
2022/03/06 01:16:35;;;;;;;14.25;2.17;;;3.10;99.90;;;;;;5049611;28;20045;-62
2022/03/06 01:19:10;;;;;;;12.65;2.45;;;3.00;99.90;;;;;;5029392;28;20045;-63
2022/03/06 01:21:41;;;;;;;8.18;2.10;;;2.90;99.90;;;;;;5041107;28;20060;-61
2022/03/06 01:24:12;;;;;;;7.88;1.95;;;2.90;99.90;;;;;;5058115;28;20056;-62
2022/03/06 01:26:40;;;;;;;8.32;1.95;;;2.80;99.90;;;;;;5052841;28;20523;-62
2022/03/06 01:29:10;;;;;;;5.45;1.17;;;2.80;99.90;;;;;;5040660;28;20045;-63
2022/03/06 01:31:41;;;;;;;8.65;1.50;;;2.70;99.90;;;;;;5043403;28;20060;-63
2022/03/06 01:34:10;;;;;;;11.35;2.25;;;2.60;99.90;;;;;;5024181;28;20053;-62
2022/03/06 01:36:43;;;;;;;10.73;2.33;;;2.60;99.90;;;;;;5042848;28;20052;-63
2022/03/06 01:39:10;;;;;;;7.85;1.77;;;2.60;99.90;;;;;;5060452;28;20044;-62
2022/03/06 01:41:38;;;;;;;7.13;2.15;;;2.60;99.90;;;;;;5045351;28;20041;-64
2022/03/06 01:44:15;;;;;;;7.95;2.55;;;2.50;99.90;;;;;;5052579;28;20208;-63
2022/03/06 01:46:46;;;;;;;11.45;2.50;;;2.50;99.90;;;;;;5056945;28;20045;-63
2022/03/06 01:49:15;;;;;;;7.15;1.75;;;2.50;99.90;;;;;;5042287;28;20213;-63
2022/03/06 01:51:48;;;;;;;9.23;2.78;;;2.40;99.90;;;;;;5041471;28;20049;-63
2022/03/06 01:54:19;;;;;;;12.40;2.55;;;2.40;99.90;;;;;;5055933;28;20503;-62
2022/03/06 01:56:50;;;;;;;8.27;1.88;;;2.40;99.90;;;;;;5043109;28;20040;-63
2022/03/06 01:59:24;;;;;;;14.80;2.63;;;2.40;99.90;;;;;;5013981;28;20057;-62
2022/03/06 02:01:52;;;;;;;13.90;2.05;;;2.40;99.90;;;;;;5012565;28;20042;-62
2022/03/06 02:04:26;;;;;;;7.95;1.58;;;2.30;99.90;;;;;;5023444;28;20062;-63
2022/03/06 02:06:54;;;;;;;16.73;2.03;;;2.30;99.90;;;;;;5009001;28;20045;-64
2022/03/06 02:09:22;;;;;;;12.93;2.45;;;2.30;99.90;;;;;;5028312;28;20049;-64
2022/03/06 02:14:40;;;;;;;10.20;2.17;;;2.10;99.90;;;;;;5034527;28;20494;-62
2022/03/06 02:17:10;;;;;;;6.10;1.92;;;2.10;99.90;;;;;;5024529;28;20045;-63
2022/03/06 02:20:00;;;;;;;7.93;2.53;;;2.10;99.90;;;;;;5024414;28;20405;-62
2022/03/06 02:22:32;;;;;;;10.70;2.95;;;2.00;99.90;;;;;;5007468;28;20034;-62
2022/03/06 02:25:13;;;;;;;8.30;2.63;;;2.00;99.90;;;;;;5037505;28;20048;-63
2022/03/06 02:27:42;;;;;;;23.58;3.17;;;2.00;99.90;;;;;;5034404;28;20061;-65
2022/03/06 02:30:14;;;;;;;8.52;1.90;;;2.00;99.90;;;;;;5044675;28;20056;-63
2022/03/06 02:32:44;;;;;;;16.55;2.78;;;2.00;99.90;;;;;;5010887;28;20049;-63
2022/03/06 02:35:15;;;;;;;7.53;1.88;;;2.00;99.90;;;;;;5012799;28;20054;-62
2022/03/06 02:37:48;;;;;;;12.73;2.80;;;2.00;99.90;;;;;;5016675;28;20062;-62
2022/03/06 02:40:18;;;;;;;19.05;3.15;;;2.10;99.90;;;;;;5031318;28;20562;-62
2022/03/06 02:42:51;;;;;;;10.50;2.33;;;2.00;99.90;;;;;;5026513;28;20049;-63
2022/03/06 02:45:22;;;;;;;13.82;2.42;;;2.00;99.90;;;;;;5038950;28;20381;-62
2022/03/06 02:47:52;;;;;;;8.32;3.08;;;2.00;99.90;;;;;;5018425;28;20050;-62
2022/03/06 02:50:31;;;;;;;12.52;3.35;;;2.00;99.90;;;;;;5014080;28;20053;-63
2022/03/06 02:53:00;;;;;;;12.18;4.20;;;2.00;99.90;;;;;;5032053;28;20511;-62
2022/03/06 02:55:28;;;;;;;11.20;3.72;;;2.00;99.90;;;;;;5049064;28;20099;-62
2022/03/06 02:57:56;;;;;;;13.60;3.90;;;2.00;99.90;;;;;;5021484;28;20052;-62
2022/03/06 03:00:26;;;;;;;15.55;4.20;;;1.90;99.90;;;;;;5054865;28;20500;-64
2022/03/06 03:02:54;;;;;;;11.90;3.72;;;1.90;99.90;;;;;;5051268;28;20041;-63
2022/03/06 03:05:21;;;;;;;17.88;4.57;;;1.90;99.90;;;;;;5050925;28;20053;-63
2022/03/06 03:07:50;;;;;;;12.95;4.70;;;1.80;99.90;;;;;;5047149;28;20514;-63
2022/03/06 03:10:22;;;;;;;12.77;5.35;;;1.90;99.90;;;;;;5050816;28;20424;-64
2022/03/06 03:12:54;;;;;;;10.95;5.20;;;1.80;99.90;;;;;;5050819;28;20041;-63
2022/03/06 03:15:23;;;;;;;17.45;5.20;;;1.80;99.90;;;;;;5050824;28;20072;-63
2022/03/06 03:17:51;;;;;;;18.77;5.53;;;1.90;99.90;;;;;;5064720;28;20049;-62
2022/03/06 03:20:20;;;;;;;13.75;5.55;;;1.80;99.90;;;;;;5053186;28;20404;-64
2022/03/06 03:22:48;;;;;;;17.00;5.20;;;1.80;99.90;;;;;;5054348;28;20045;-62
2022/03/06 03:25:16;;;;;;;14.82;4.43;;;1.80;99.90;;;;;;5050853;28;20049;-63
2022/03/06 03:27:44;;;;;;;9.70;4.57;;;1.80;99.90;;;;;;5042430;28;20053;-63
2022/03/06 03:30:14;;;;;;;20.88;4.28;;;1.70;99.90;;;;;;5030889;28;20048;-64
2022/03/06 03:32:43;;;;;;;8.43;3.53;;;1.70;99.90;;;;;;5031055;28;20519;-63
2022/03/06 03:35:10;;;;;;;10.88;3.38;;;1.70;99.90;;;;;;5050853;28;20049;-63
2022/03/06 03:37:38;;;;;;;6.30;3.20;;;1.70;99.90;;;;;;5054144;28;20052;-63
2022/03/06 03:40:06;;;;;;;6.85;3.15;;;1.70;99.90;;;;;;5052578;28;20045;-64
2022/03/06 03:42:35;;;;;;;8.13;2.42;;;1.70;99.90;;;;;;5042047;28;20053;-62
2022/03/06 03:45:07;;;;;;;7.82;2.60;;;1.70;99.90;;;;;;5037497;28;20629;-62
2022/03/06 03:47:35;;;;;;;12.73;2.65;;;1.70;99.90;;;;;;5054520;28;20392;-62
2022/03/06 03:50:04;;;;;;;11.20;2.65;;;1.80;99.90;;;;;;5035956;28;20045;-62
2022/03/06 03:52:38;;;;;;;6.63;2.17;;;1.80;99.90;;;;;;5040006;28;20053;-63
2022/03/06 03:55:07;;;;;;;9.65;2.63;;;1.90;99.90;;;;;;5037227;28;20548;-62
2022/03/06 03:57:35;;;;;;;10.70;3.17;;;1.90;99.90;;;;;;5035315;28;20045;-62
2022/03/06 04:00:07;;;;;;;10.90;3.65;;;1.90;99.90;;;;;;5039451;28;20544;-62
2022/03/06 04:02:35;;;;;;;16.25;3.17;;;1.90;99.90;;;;;;5031033;28;20052;-64
2022/03/06 04:05:13;;;;;;;9.75;2.92;;;2.00;99.90;;;;;;5021857;28;20052;-65
2022/03/06 04:07:41;;;;;;;13.05;3.08;;;2.10;99.90;;;;;;5040827;28;20046;-64
2022/03/06 04:10:10;;;;;;;14.60;3.03;;;2.10;99.90;;;;;;5036162;28;20520;-65
2022/03/06 04:12:37;;;;;;;13.63;3.00;;;2.20;99.90;;;;;;5041309;28;20049;-63
2022/03/06 04:15:06;;;;;;;10.68;2.17;;;2.30;99.90;;;;;;5050984;28;20052;-62
2022/03/06 04:17:34;;;;;;;7.70;2.53;;;2.30;99.90;;;;;;5046457;28;20045;-61
2022/03/06 04:20:02;;;;;;;9.35;3.03;;;2.40;99.90;;;;;;5029538;28;20037;-62
2022/03/06 04:22:39;;;;;;;13.50;4.10;;;2.40;99.90;;;;;;5048794;28;20060;-62
2022/03/06 04:25:08;;;;;;;5.95;2.53;;;2.40;99.90;;;;;;5036367;28;20412;-63
2022/03/06 04:27:40;;;;;;;11.35;2.63;;;2.50;99.90;;;;;;5021579;28;20041;-63
2022/03/06 04:30:08;;;;;;;8.60;2.60;;;2.40;99.90;;;;;;5073328;28;20633;-62
2022/03/06 04:32:39;;;;;;;10.15;2.67;;;2.50;99.90;;;;;;5039700;28;20038;-63
2022/03/06 04:35:07;;;;;;;12.48;3.17;;;2.50;99.90;;;;;;5032026;28;20056;-61
2022/03/06 04:37:35;;;;;;;10.10;2.25;;;2.50;99.90;;;;;;5048762;28;20041;-62
2022/03/06 04:40:03;;;;;;;7.75;2.50;;;2.50;99.90;;;;;;5059765;28;20048;-62
2022/03/06 04:42:31;;;;;;;14.38;3.05;;;2.50;99.90;;;;;;5047910;28;20046;-62
2022/03/06 04:44:59;;;;;;;15.13;3.00;;;2.50;99.90;;;;;;5048429;28;20044;-62
2022/03/06 04:47:27;;;;;;;9.35;2.50;;;2.50;99.90;;;;;;5051210;28;20053;-62
2022/03/06 04:49:58;;;;;;;15.98;2.90;;;2.40;99.90;;;;;;5049866;28;20061;-63
2022/03/06 04:52:26;;;;;;;15.68;2.85;;;2.40;99.90;;;;;;5033707;28;20046;-64
2022/03/06 04:54:54;;;;;;;10.98;4.10;;;2.30;99.90;;;;;;5034469;28;20412;-63
2022/03/06 04:57:24;;;;;;;8.07;2.92;;;2.20;99.90;;;;;;5041715;28;20040;-64
2022/03/06 04:59:53;;;;;;;9.57;2.75;;;2.10;99.90;;;;;;5041403;28;20136;-63
2022/03/06 05:02:20;;;;;;;17.10;3.30;;;1.90;99.90;;;;;;5015232;28;20056;-62
2022/03/06 05:04:49;;;;;;;8.55;3.22;;;1.80;99.90;;;;;;5032567;28;20049;-62
2022/03/06 05:07:16;;;;;;;10.05;3.30;;;1.80;99.90;;;;;;5032498;28;20121;-62
2022/03/06 05:09:44;;;;;;;9.77;3.70;;;1.80;99.90;;;;;;5032233;28;20048;-63
2022/03/06 05:12:12;;;;;;;9.32;3.60;;;1.80;99.90;;;;;;5035040;28;20516;-62
2022/03/06 05:14:40;;;;;;;11.50;3.25;;;1.70;99.90;;;;;;5033146;28;20048;-62
2022/03/06 05:17:08;;;;;;;10.45;2.97;;;1.70;99.90;;;;;;5041392;28;20037;-63
2022/03/06 05:19:35;;;;;;;11.60;3.08;;;1.60;99.90;;;;;;5056502;28;20051;-62
2022/03/06 05:22:03;;;;;;;12.20;2.92;;;1.60;99.90;;;;;;5030439;28;20049;-63
2022/03/06 05:24:31;;;;;;;9.25;3.05;;;1.50;99.90;;;;;;5056857;28;20522;-63
2022/03/06 05:26:59;;;;;;;17.23;4.05;;;1.50;99.90;;;;;;5041691;28;20392;-64
2022/03/06 05:29:27;;;;;;;12.23;3.70;;;1.50;99.90;;;;;;5039039;28;20040;-63
2022/03/06 05:31:55;;;;;;;15.95;3.80;;;1.50;99.90;;;;;;5067441;28;20511;-64
2022/03/06 05:34:23;;;;;;;16.45;3.47;;;1.50;99.90;;;;;;5047974;28;20038;-63
2022/03/06 05:36:50;;;;;;;11.18;3.28;;;1.60;99.90;;;;;;5038074;28;20049;-63
2022/03/06 05:39:18;;;;;;;8.82;3.92;;;1.60;99.90;;;;;;5053645;28;20049;-62
2022/03/06 05:41:47;;;;;;;8.88;3.17;;;1.60;99.90;;;;;;5021955;28;20046;-61
2022/03/06 05:44:18;;;;;;;17.95;3.90;;;1.60;99.90;;;;;;5015107;28;20060;-62
2022/03/06 05:46:49;;;;;;;14.50;4.28;;;1.70;99.90;;;;;;5045974;28;20397;-63
2022/03/06 05:49:17;;;;;;;13.50;3.13;;;1.70;99.90;;;;;;5039647;28;20093;-62
2022/03/06 05:51:45;;;;;;;12.68;2.92;;;1.70;99.90;;;;;;5043114;28;20048;-62
2022/03/06 05:54:25;;;;;;;11.32;2.88;;;1.70;99.90;;;;;;5031880;28;20409;-62
2022/03/06 05:56:56;;;;;;;16.10;3.28;;;1.70;99.90;;;;;;5040265;28;20519;-62
2022/03/06 05:59:27;;;;;;;15.02;3.80;;;1.70;99.90;;;;;;5032863;28;20072;-63
2022/03/06 06:01:56;;;;;;;9.07;2.80;;;1.60;99.90;;;;;;5039859;28;20420;-63
2022/03/06 06:04:30;;;;;;;12.98;2.90;;;1.60;99.90;;;;;;5007946;28;20409;-63
2022/03/06 06:07:00;;;;;;;5.80;3.15;;;1.50;99.90;;;;;;5026296;28;20071;-63
2022/03/06 06:09:31;;;;;;;14.73;3.08;;;1.50;99.90;;;;;;5035068;28;20048;-62
2022/03/06 06:11:58;;;;;;;9.50;3.63;;;1.40;99.90;;;;;;5051307;28;20216;-63
2022/03/06 06:14:26;;;;;;;11.73;3.17;;;1.30;99.90;;;;;;5031387;28;20041;-63
2022/03/06 06:16:54;;;;;;;11.57;3.20;;;1.30;99.90;;;;;;5049883;28;20362;-64
2022/03/06 06:19:21;;;;;;;12.45;3.08;;;1.20;99.90;;;;;;5048119;28;20072;-64
2022/03/06 06:21:49;;;;;;;10.82;3.50;;;1.10;99.90;;;;;;5039132;28;20053;-62
2022/03/06 06:24:17;;;;;;;14.52;2.70;;;1.10;99.90;;;;;;5061518;28;20049;-62
2022/03/06 06:26:47;;;;;;;13.27;3.30;;;1.10;99.90;;;;;;5039314;28;20053;-63
2022/03/06 06:29:15;;;;;;;11.05;2.85;;;1.00;99.90;;;;;;5028855;28;20049;-62
2022/03/06 06:31:43;;;;;;;9.70;2.90;;;0.90;99.90;;;;;;5046976;28;20060;-61
2022/03/06 06:34:15;;;;;;;9.25;3.45;;;0.90;99.90;;;;;;5035106;28;20064;-64
2022/03/06 06:36:43;;;;;;;8.02;3.47;;;0.80;99.90;;;;;;5039818;28;20499;-63
2022/03/06 06:39:15;;;;;;;18.40;4.22;;;0.80;99.90;;;;;;5027362;28;20042;-63
2022/03/06 06:41:43;;;;;;;15.63;3.80;;;0.80;99.90;;;;;;5045513;28;20053;-65
2022/03/06 06:44:11;;;;;;;16.02;3.97;;;0.80;99.90;;;;;;5036888;28;20037;-64
2022/03/06 06:46:41;;;;;;;13.90;4.15;;;0.70;99.90;;;;;;5042437;28;20421;-63
2022/03/06 06:49:10;;;;;;;10.85;3.63;;;0.70;99.90;;;;;;5041329;28;20945;-64
2022/03/06 06:51:38;;;;;;;10.85;4.78;;;0.70;99.90;;;;;;5027842;28;20049;-65
2022/03/06 06:54:07;;;;;;;17.85;3.85;;;0.60;99.90;;;;;;5035715;28;20033;-65
2022/03/06 06:56:34;;;;;;;10.05;4.07;;;0.60;99.90;;;;;;5027681;28;20048;-65
2022/03/06 06:59:02;;;;;;;8.85;3.60;;;0.60;99.90;;;;;;5045950;28;20045;-63
2022/03/06 07:01:30;;;;;;;15.13;4.03;;;0.60;99.90;;;;;;5038742;28;20049;-63
2022/03/06 07:03:58;;;;;;;18.52;4.30;;;0.60;99.90;;;;;;5058020;28;20133;-63
2022/03/06 07:06:26;;;;;;;22.25;4.65;;;0.50;99.90;;;;;;5031589;28;20049;-61
2022/03/06 07:08:54;;;;;;;10.55;5.00;;;0.60;99.90;;;;;;5047078;28;20048;-62
2022/03/06 07:11:22;;;;;;;13.98;4.50;;;0.60;99.90;;;;;;5036882;28;20041;-63
2022/03/06 07:13:50;;;;;;;11.90;3.50;;;0.60;99.90;;;;;;5049119;28;20038;-63
2022/03/06 07:16:18;;;;;;;11.75;4.25;;;0.50;99.90;;;;;;5038780;28;20060;-63
2022/03/06 07:18:46;;;;;;;19.30;4.60;;;0.60;99.90;;;;;;5060260;28;20041;-63
2022/03/06 07:21:14;;;;;;;16.05;4.63;;;0.60;99.90;;;;;;5016397;28;20413;-65
2022/03/06 07:23:42;;;;;;;14.30;4.55;;;0.60;99.90;;;;;;5041343;28;20048;-64
2022/03/06 07:26:10;;;;;;;19.02;5.35;;;0.60;99.90;;;;;;5034325;28;20050;-62
2022/03/06 07:28:38;;;;;;;16.67;5.35;;;0.70;99.90;;;;;;5048684;28;20056;-63
2022/03/06 07:31:06;;;;;;;16.15;4.82;;;0.70;99.90;;;;;;5038158;28;20389;-63
2022/03/06 07:33:34;;;;;;;22.25;6.10;;;0.80;99.90;;;;;;5054051;28;20041;-63
2022/03/06 07:36:02;;;;;;;12.88;3.30;;;0.80;99.90;;;;;;5032568;28;20061;-62
2022/03/06 07:38:30;;;;;;;12.30;3.50;;;0.90;99.90;;;;;;5017734;28;20053;-62
2022/03/06 07:41:00;;;;;;;14.07;3.38;;;0.90;99.90;;;;;;5051539;28;20392;-62
2022/03/06 07:43:28;;;;;;;19.90;4.55;;;0.90;99.90;;;;;;5046133;28;20044;-62
2022/03/06 07:45:56;;;;;;;15.18;3.45;;;1.00;99.90;;;;;;5038141;28;20053;-62
2022/03/06 07:48:23;;;;;;;11.80;4.45;;;1.00;99.90;;;;;;5047306;28;20052;-63
2022/03/06 07:50:51;;;;;;;16.48;3.65;;;1.10;99.90;;;;;;5036132;28;20048;-62
2022/03/06 07:53:22;;;;;;;15.65;3.28;;;1.10;99.90;;;;;;5052071;28;20491;-63
2022/03/06 07:55:50;;;;;;;14.82;3.72;;;1.20;99.90;;;;;;5045824;28;20654;-62
2022/03/06 07:58:18;;;;;;;16.88;3.95;;;1.20;99.90;;;;;;5036009;28;20052;-63
2022/03/06 08:00:47;;;;;;;14.77;3.72;;;1.30;99.90;;;;;;5034892;28;20041;-62
2022/03/06 08:03:15;;;;;;;18.63;4.40;;;1.40;99.90;;;;;;5026415;28;20045;-62
2022/03/06 08:05:44;;;;;;;16.45;3.92;;;1.50;99.90;;;;;;5045850;28;20041;-62
2022/03/06 08:08:12;;;;;;;12.02;3.45;;;1.50;99.90;;;;;;5042099;28;20033;-62
2022/03/06 08:10:41;;;;;;;12.57;3.40;;;1.50;99.90;;;;;;5047258;28;20051;-62
2022/03/06 08:13:14;;;;;;;17.15;4.18;;;1.70;99.90;;;;;;5032025;28;20400;-62
2022/03/06 08:15:46;;;;;;;13.68;3.40;;;1.70;99.90;;;;;;5036001;28;20046;-62
2022/03/06 08:18:14;;;;;;;11.98;3.47;;;1.80;99.90;;;;;;5030556;28;20064;-62
2022/03/06 08:20:42;;;;;;;21.05;3.45;;;1.90;99.90;;;;;;5032911;28;20416;-63
2022/03/06 08:23:10;;;;;;;16.58;4.13;;;2.00;99.90;;;;;;5049493;28;20049;-62
2022/03/06 08:25:49;;;;;;;12.18;3.67;;;2.10;99.90;;;;;;5041171;28;20037;-62
2022/03/06 08:28:17;;;;;;;17.88;4.97;;;2.20;99.90;;;;;;5040433;28;20048;-62
2022/03/06 08:30:49;;;;;;;10.82;3.95;;;2.20;99.90;;;;;;5054554;28;20056;-62
2022/03/06 08:33:17;;;;;;;18.20;3.50;;;2.30;99.90;;;;;;5053291;28;20444;-64
2022/03/06 08:35:52;;;;;;;14.43;4.40;;;2.40;99.90;;;;;;5036983;28;20040;-63
2022/03/06 08:38:27;;;;;;;9.98;3.88;;;2.50;99.90;;;;;;5046882;28;20431;-65
2022/03/06 08:40:55;;;;;;;14.18;3.67;;;2.50;99.90;;;;;;5004563;28;20041;-62
2022/03/06 08:43:26;;;;;;;12.60;3.58;;;2.60;99.90;;;;;;5059021;28;20393;-63
2022/03/06 08:45:58;;;;;;;14.07;4.07;;;2.70;99.90;;;;;;5040408;28;20072;-62
2022/03/06 08:48:32;;;;;;;15.80;4.43;;;2.80;99.90;;;;;;5032051;28;20052;-62
2022/03/06 08:51:13;;;;;;;14.43;4.68;;;2.90;99.90;;;;;;5041056;28;20084;-61
2022/03/06 08:53:44;;;;;;;9.35;4.40;;;3.10;99.90;;;;;;5045838;28;20052;-62
2022/03/06 08:56:15;;;;;;;16.30;7.15;;;3.10;99.90;;;;;;5021223;28;20049;-62
2022/03/06 08:58:53;;;;;;;16.25;5.30;;;3.20;99.90;;;;;;5041965;28;20049;-63
2022/03/06 09:01:22;;;;;;;26.60;4.23;;;3.40;99.90;;;;;;5051874;28;20053;-65
2022/03/06 09:03:51;;;;;;;14.70;3.38;;;3.40;99.90;;;;;;5057718;28;20041;-63
2022/03/06 09:06:19;;;;;;;11.73;3.00;;;3.60;99.90;;;;;;5028078;28;20045;-64
2022/03/06 09:08:46;;;;;;;10.32;2.97;;;3.70;99.90;;;;;;5042068;28;20041;-64
2022/03/06 09:11:14;;;;;;;8.43;2.58;;;3.80;99.90;;;;;;5049839;28;20048;-64
2022/03/06 09:13:42;;;;;;;4.70;2.05;;;4.00;99.90;;;;;;5057741;28;20038;-62
2022/03/06 09:16:10;;;;;;;11.07;2.70;;;4.10;99.90;;;;;;5049228;28;20281;-64
2022/03/06 09:18:37;;;;;;;13.35;2.20;;;4.30;99.90;;;;;;5036821;28;20045;-64
2022/03/06 09:21:05;;;;;;;8.98;2.05;;;4.50;99.90;;;;;;5047163;28;20041;-64
2022/03/06 09:23:33;;;;;;;6.88;1.90;;;4.60;99.90;;;;;;5022394;28;20536;-65
2022/03/06 09:26:01;;;;;;;15.60;2.10;;;4.80;99.90;;;;;;5039892;28;20060;-64
2022/03/06 09:28:28;;;;;;;10.50;2.28;;;4.80;99.90;;;;;;5052372;28;20041;-65
2022/03/06 09:30:56;;;;;;;9.60;2.10;;;4.80;99.90;;;;;;5041109;28;20048;-64
2022/03/06 09:33:24;;;;;;;12.02;1.90;;;4.80;99.90;;;;;;5052494;28;20048;-64
2022/03/06 09:35:52;;;;;;;7.30;2.10;;;4.80;99.90;;;;;;5039264;28;20045;-64
2022/03/06 09:38:19;;;;;;;5.30;1.73;;;4.80;99.90;;;;;;5048979;28;20048;-64
2022/03/06 09:40:47;;;;;;;9.07;1.92;;;4.80;99.90;;;;;;5029378;28;20397;-64
2022/03/06 09:43:18;;;;;;;15.73;2.63;;;4.90;99.90;;;;;;5019233;28;20091;-64
2022/03/06 09:45:48;;;;;;;10.35;2.72;;;4.90;99.90;;;;;;5038282;28;20421;-63
2022/03/06 09:48:18;;;;;;;12.00;3.83;;;5.00;99.90;;;;;;5048432;28;20052;-61
2022/03/06 09:50:46;;;;;;;9.10;1.83;;;5.10;99.90;;;;;;5041555;28;20432;-62
2022/03/06 09:53:14;;;;;;;9.75;2.65;;;5.20;99.90;;;;;;5011113;28;20052;-63
2022/03/06 09:55:42;;;;;;;9.75;3.88;;;5.20;99.90;;;;;;5035270;28;20041;-62
2022/03/06 09:58:10;;;;;;;8.73;2.90;;;5.30;99.90;;;;;;5057973;28;20053;-63
2022/03/06 10:00:38;;;;;;;8.60;2.20;;;5.40;99.90;;;;;;5040386;28;20049;-63
2022/03/06 10:03:07;;;;;;;9.75;3.05;;;5.50;99.90;;;;;;5056004;28;20036;-64
2022/03/06 10:05:39;;;;;;;103.38;31.02;;;5.60;99.90;;;;;;5050769;28;20047;-64
2022/03/06 10:08:23;;;;;;;471.70;156.48;;;5.70;99.90;;;;;;5046457;28;20040;-63
2022/03/06 10:10:57;;;;;;;132.32;40.83;;;5.90;99.90;;;;;;5036312;28;20041;-63
2022/03/06 10:13:39;;;;;;;45.85;15.15;;;6.10;99.90;;;;;;5042754;28;20512;-64
2022/03/06 10:16:20;;;;;;;7.72;2.53;;;6.20;99.90;;;;;;5039166;28;20045;-62
2022/03/06 10:18:52;;;;;;;13.40;3.20;;;6.40;99.90;;;;;;5020529;28;20511;-62
2022/03/06 10:21:28;;;;;;;266.77;91.63;;;6.50;99.90;;;;;;5046583;28;20045;-62
2022/03/06 10:23:59;;;;;;;5.07;2.20;;;6.50;99.90;;;;;;5047978;28;20044;-61
2022/03/06 10:26:28;;;;;;;10.98;1.80;;;6.50;99.90;;;;;;5057544;28;20060;-62
2022/03/06 10:28:58;;;;;;;15.82;2.95;;;6.50;99.90;;;;;;5044274;28;20037;-62
2022/03/06 10:31:28;;;;;;;;;;;6.50;99.90;;;;;;5040306;28;20654;-62
2022/03/06 10:34:14;;;;;;;11.50;1.50;;;6.50;99.90;;;;;;5036000;28;19921;-62
2022/03/06 10:36:51;;;;;;;5.68;0.93;;;6.50;99.90;;;;;;5038281;28;20498;-62
2022/03/06 10:39:22;;;;;;;16.63;3.88;;;6.50;99.90;;;;;;5036757;28;20045;-62
2022/03/06 10:41:52;;;;;;;10.02;4.03;;;6.50;99.90;;;;;;5039466;28;20037;-63
2022/03/06 10:44:21;;;;;;;9.70;2.58;;;6.60;99.90;;;;;;5041154;28;20049;-63
2022/03/06 10:47:01;;;;;;;19.50;4.82;;;6.60;99.90;;;;;;5051302;28;20052;-61
2022/03/06 10:49:29;;;;;;;12.27;4.25;;;6.60;99.90;;;;;;5057570;28;20057;-62
2022/03/06 10:52:11;;;;;;;16.30;4.60;;;6.70;99.90;;;;;;5041577;28;20476;-62
2022/03/06 10:55:08;;;;;;;12.07;2.42;;;6.80;99.90;;;;;;5053778;28;20369;-62
2022/03/06 10:57:36;;;;;;;8.82;3.80;;;6.90;99.90;;;;;;5016623;28;20049;-64
2022/03/06 11:00:05;;;;;;;8.27;3.10;;;6.90;99.90;;;;;;5062517;28;20052;-63
2022/03/06 11:02:35;;;;;;;21.60;9.50;;;7.00;99.90;;;;;;5029054;28;20052;-63
2022/03/06 11:05:04;;;;;;;23.67;8.63;;;7.10;99.90;;;;;;5040346;28;20061;-63
2022/03/06 11:07:32;;;;;;;17.10;6.50;;;7.40;99.90;;;;;;5043578;28;20045;-63
2022/03/06 11:10:01;;;;;;;17.60;7.80;;;7.60;99.90;;;;;;5043337;28;20038;-60
2022/03/06 11:12:29;;;;;;;6.07;1.53;;;7.90;99.90;;;;;;5020562;28;20057;-62
2022/03/06 11:14:59;;;;;;;7.75;2.50;;;8.20;99.90;;;;;;5045881;28;20052;-62
2022/03/06 11:17:27;;;;;;;;;;;8.50;99.90;;;;;;5029882;28;20045;-63
2022/03/06 11:19:54;;;;;;;5.25;1.30;;;8.70;99.90;;;;;;5040916;28;19931;-61
2022/03/06 11:22:38;;;;;;;10.55;3.08;;;8.90;99.90;;;;;;5052633;28;20048;-62
2022/03/06 11:25:14;;;;;;;10.68;3.30;;;9.00;99.90;;;;;;5038825;28;20057;-61
2022/03/06 11:28:26;;;;;;;13.02;4.00;;;9.10;99.90;;;;;;5069364;28;20055;-62
2022/03/06 11:30:59;;;;;;;5.55;1.25;;;9.00;99.90;;;;;;4968724;28;20039;-62
2022/03/06 11:33:27;;;;;;;4.47;1.10;;;8.90;99.90;;;;;;4948512;28;20047;-62
2022/03/06 11:35:56;;;;;;;10.00;3.25;;;8.80;99.90;;;;;;4981690;28;20049;-61
2022/03/06 11:38:39;;;;;;;6.47;2.00;;;8.70;99.90;;;;;;5047116;28;20061;-61
2022/03/06 11:41:11;;;;;;;8.38;3.85;;;8.50;99.90;;;;;;5032362;28;20522;-63
2022/03/06 11:43:48;;;;;;;8.00;2.13;;;8.40;99.90;;;;;;5040834;28;20046;-62
2022/03/06 11:46:25;;;;;;;7.43;1.73;;;8.20;99.90;;;;;;5044623;28;20045;-61
2022/03/06 11:48:56;;;;;;;5.30;1.73;;;8.10;99.90;;;;;;5046306;28;20045;-60
2022/03/06 11:51:24;;;;;;;4.63;1.23;;;8.00;99.90;;;;;;5040566;28;20044;-62
2022/03/06 11:54:28;;;;;;;5.30;1.77;;;7.80;99.90;;;;;;5048308;28;20037;-61
2022/03/06 11:56:56;;;;;;;7.50;1.30;;;7.80;99.90;;;;;;5022261;28;20064;-62
2022/03/06 11:59:27;;;;;;;4.45;1.45;;;7.70;99.90;;;;;;5050975;28;20055;-62
2022/03/06 12:01:57;;;;;;;5.63;1.70;;;7.60;99.90;;;;;;5038562;28;20041;-62
2022/03/06 12:04:29;;;;;;;7.38;1.70;;;7.60;99.90;;;;;;5019657;28;20053;-63
2022/03/06 12:07:06;;;;;;;8.45;1.65;;;7.90;99.90;;;;;;5039380;28;20033;-63
2022/03/06 12:09:40;;;;;;;8.30;1.67;;;8.50;99.90;;;;;;5030589;28;20037;-62
2022/03/06 12:12:11;;;;;;;6.88;1.48;;;8.80;99.90;;;;;;5022402;28;20504;-62
2022/03/06 12:14:45;;;;;;;4.00;1.05;;;9.00;99.90;;;;;;5048258;28;20032;-62
2022/03/06 12:17:13;;;;;;;5.25;1.30;;;8.90;99.90;;;;;;5060119;28;21253;-62
2022/03/06 12:20:03;;;;;;;9.93;2.15;;;8.90;99.90;;;;;;5039426;28;20510;-62
2022/03/06 12:22:44;;;;;;;15.20;2.88;;;9.00;99.90;;;;;;5055221;28;20496;-62
2022/03/06 12:25:13;;;;;;;8.10;2.10;;;9.70;99.90;;;;;;5045625;28;20072;-63
2022/03/06 12:28:02;;;;;;;14.77;3.88;;;10.40;99.90;;;;;;5046432;28;20372;-63
2022/03/06 12:30:32;;;;;;;10.15;2.95;;;10.70;98.10;;;;;;5051368;28;20053;-63
2022/03/06 12:33:33;;;;;;;6.85;2.00;;;10.90;92.60;;;;;;5045765;28;20048;-64
2022/03/06 12:36:13;;;;;;;15.82;5.57;;;11.00;89.20;;;;;;5070214;28;20395;-62
2022/03/06 12:38:41;;;;;;;12.85;5.72;;;10.90;89.40;;;;;;5052526;28;20040;-64
2022/03/06 12:41:09;;;;;;;15.48;6.13;;;10.60;89.80;;;;;;5038193;28;20045;-63
2022/03/06 12:43:59;;;;;;;3.33;1.20;;;10.40;91.20;;;;;;5055278;28;20053;-64
2022/03/06 12:46:27;;;;;;;16.23;5.70;;;10.10;91.50;;;;;;5037582;28;20515;-63
2022/03/06 12:48:55;;;;;;;10.90;2.17;;;9.80;93.20;;;;;;5029902;28;20439;-62
2022/03/06 12:51:40;;;;;;;4.60;1.20;;;9.60;94.00;;;;;;5032215;28;20041;-62
2022/03/06 12:54:37;;;;;;;9.98;2.38;;;9.30;96.20;;;;;;5065840;28;20075;-62
2022/03/06 12:57:05;;;;;;;7.65;2.35;;;9.30;96.90;;;;;;5019614;28;20045;-62
2022/03/06 12:59:40;;;;;;;5.32;2.15;;;9.40;99.60;;;;;;5030747;28;20045;-63
2022/03/06 13:02:08;;;;;;;7.63;2.03;;;9.60;98.10;;;;;;5045993;28;20041;-63
2022/03/06 13:04:37;;;;;;;6.35;1.88;;;10.10;99.90;;;;;;5054715;28;20072;-63
2022/03/06 13:07:10;;;;;;;15.88;6.18;;;10.90;99.90;;;;;;5058257;28;20063;-63
2022/03/06 13:09:38;;;;;;;10.82;3.60;;;11.90;94.50;;;;;;5050590;28;20049;-63
2022/03/06 13:12:06;;;;;;;10.45;3.50;;;12.70;79.70;;;;;;5025415;28;20037;-64